Time;durP1;ratioP1;P1;durP2;ratioP2;P2;SDS_P1;SDS_P2;PMS_P1;PMS_P2;Temp;Humidity;BMP_temperature;BMP_pressure;BME280_temperature;BME280_humidity;BME280_pressure;Samples;Min_cycle;Max_cycle;Signal;HPM_P1;HPM_P2
2022/11/09 00:03:44;;;;;;;5.27;3.10;;;;;;;17.92;66.20;96277.25;10434956;28;20629;-31
2022/11/09 00:08:44;;;;;;;4.57;2.63;;;;;;;17.88;66.10;96274.72;10423017;28;20037;-30
2022/11/09 00:13:45;;;;;;;6.27;2.23;;;;;;;17.81;65.80;96268.88;10432980;28;20033;-29
2022/11/09 00:18:47;;;;;;;4.57;2.15;;;;;;;17.79;65.73;96267.19;10431125;28;20494;-30
2022/11/09 00:23:47;;;;;;;6.72;2.15;;;;;;;17.74;65.83;96267.22;10424774;28;20035;-30
2022/11/09 00:28:49;;;;;;;3.38;2.75;;;;;;;17.77;65.80;96276.47;10432288;28;20039;-30
2022/11/09 00:33:51;;;;;;;3.92;2.80;;;;;;;17.74;66.03;96262.16;10430013;28;20631;-30
2022/11/09 00:38:54;;;;;;;5.95;2.15;;;;;;;17.75;66.04;96278.19;10433549;28;20029;-29
2022/11/09 00:43:55;;;;;;;5.68;2.78;;;;;;;17.76;65.93;96275.63;10430330;28;20037;-31
2022/11/09 00:48:57;;;;;;;6.18;2.30;;;;;;;17.76;66.08;96273.09;10426550;28;20026;-30
2022/11/09 00:53:57;;;;;;;5.55;2.10;;;;;;;17.76;66.09;96270.56;10433538;28;20041;-29
2022/11/09 00:58:58;;;;;;;6.15;2.30;;;;;;;17.75;66.09;96279.00;10437591;28;20029;-31
2022/11/09 01:03:59;;;;;;;8.52;3.28;;;;;;;17.82;66.37;96295.88;10440944;28;20033;-32
2022/11/09 01:09:00;;;;;;;7.87;3.67;;;;;;;17.87;66.71;96294.16;10430057;28;20044;-32
2022/11/09 01:14:01;;;;;;;5.20;2.00;;;;;;;17.90;66.08;96318.66;10439478;28;20693;-30
2022/11/09 01:19:02;;;;;;;4.10;2.15;;;;;;;17.86;65.94;96327.94;10436182;28;20086;-29
2022/11/09 01:24:03;;;;;;;3.65;2.00;;;;;;;17.79;66.03;96336.41;10433357;28;20063;-30
2022/11/09 01:29:03;;;;;;;6.78;2.80;;;;;;;17.77;66.11;96342.31;10435099;28;20029;-30
2022/11/09 01:34:06;;;;;;;5.95;2.13;;;;;;;17.65;65.97;96322.13;10434816;28;20033;-30
2022/11/09 01:39:07;;;;;;;3.30;2.03;;;;;;;17.76;66.11;96335.56;10436652;28;20515;-30
2022/11/09 01:44:19;;;;;;;5.85;2.25;;;;;;;17.75;66.15;96336.41;10434392;28;20044;-30
2022/11/09 01:49:44;;;;;;;9.40;2.10;;;;;;;17.75;66.06;96329.66;10431679;28;20557;-30
2022/11/09 01:54:47;;;;;;;3.90;2.00;;;;;;;17.74;66.13;96338.09;10435740;28;20032;-30
2022/11/09 01:59:55;;;;;;;4.28;1.90;;;;;;;17.75;66.04;96334.72;10434574;28;20041;-30
2022/11/09 02:05:00;;;;;;;3.67;2.00;;;;;;;17.69;66.04;96324.63;10447730;28;20499;-32
2022/11/09 02:10:19;;;;;;;5.13;1.77;;;;;;;17.75;66.30;96346.56;10430375;28;20130;-30
2022/11/09 02:15:20;;;;;;;5.60;2.08;;;;;;;17.79;66.07;96346.53;10431452;28;20025;-31
2022/11/09 02:20:22;;;;;;;6.45;2.13;;;;;;;17.87;66.69;96338.91;10434470;28;20017;-30
2022/11/09 02:25:22;;;;;;;6.43;1.95;;;;;;;17.88;66.05;96330.44;10434539;28;20579;-30
2022/11/09 02:30:23;;;;;;;4.90;1.88;;;;;;;17.83;65.68;96327.94;10432833;28;20094;-29
2022/11/09 02:35:24;;;;;;;4.13;2.05;;;;;;;17.81;65.95;96333.84;10431230;28;20033;-31
2022/11/09 02:40:36;;;;;;;4.13;1.73;;;;;;;17.76;65.89;96333.03;10439346;28;20025;-31
2022/11/09 02:45:38;;;;;;;2.38;1.50;;;;;;;17.76;65.83;96341.47;10439570;28;20504;-30
2022/11/09 02:50:39;;;;;;;2.75;1.88;;;;;;;17.75;65.90;96338.94;10437774;28;20309;-30
2022/11/09 02:55:39;;;;;;;4.03;1.80;;;;;;;17.74;66.02;96337.28;10433730;28;20036;-31
2022/11/09 03:00:41;;;;;;;5.32;2.08;;;;;;;17.73;66.14;96340.66;10430111;28;20330;-30
2022/11/09 03:05:42;;;;;;;4.00;1.83;;;;;;;17.74;65.92;96344.88;10427596;28;20495;-31
2022/11/09 03:10:44;;;;;;;2.63;1.70;;;;;;;17.70;66.06;96349.09;10431152;28;20517;-30
2022/11/09 03:15:45;;;;;;;3.40;1.77;;;;;;;17.72;66.21;96356.66;10427471;28;20496;-31
2022/11/09 03:20:46;;;;;;;3.72;1.50;;;;;;;17.73;66.28;96365.97;10427171;28;20033;-30
2022/11/09 03:25:50;;;;;;;3.80;1.85;;;;;;;17.81;66.54;96369.28;10435841;28;20029;-30
2022/11/09 03:30:50;;;;;;;2.70;1.55;;;;;;;17.85;66.45;96356.66;10430644;28;20040;-30
2022/11/09 03:35:51;;;;;;;4.85;1.67;;;;;;;17.86;66.87;96372.66;10428198;28;20029;-31
2022/11/09 03:40:53;;;;;;;3.47;2.50;;;;;;;17.84;65.84;96387.03;10433969;28;20026;-29
2022/11/09 03:45:54;;;;;;;2.55;1.67;;;;;;;17.74;65.86;96365.94;10429613;28;20038;-30
2022/11/09 03:50:55;;;;;;;3.05;1.67;;;;;;;17.74;65.90;96378.59;10429360;28;20036;-30
2022/11/09 03:55:56;;;;;;;4.05;1.85;;;;;;;17.74;65.94;96365.13;10433945;28;20025;-30
2022/11/09 04:00:57;;;;;;;3.40;1.55;;;;;;;17.74;66.13;96370.19;10430267;28;20021;-31
2022/11/09 04:05:58;;;;;;;2.60;1.65;;;;;;;17.70;65.98;96366.81;10433087;28;20040;-30
2022/11/09 04:10:59;;;;;;;9.75;2.53;;;;;;;17.73;66.02;96355.84;10432329;28;20041;-30
2022/11/09 04:15:59;;;;;;;4.07;1.58;;;;;;;17.72;66.05;96369.31;10430172;28;20053;-30
2022/11/09 04:21:00;;;;;;;4.50;1.63;;;;;;;17.73;66.43;96355.84;10428179;28;20046;-30
2022/11/09 04:26:00;;;;;;;3.03;1.58;;;;;;;17.77;65.75;96349.91;10440088;28;20276;-30
2022/11/09 04:31:01;;;;;;;5.00;1.60;;;;;;;17.79;65.97;96350.75;10441460;28;20044;-29
2022/11/09 04:36:03;;;;;;;6.03;1.83;;;;;;;17.84;65.36;96344.81;10437647;28;20051;-31
2022/11/09 04:41:04;;;;;;;4.65;1.67;;;;;;;17.88;65.86;96332.97;10442063;28;20055;-29
2022/11/09 04:46:04;;;;;;;3.35;1.40;;;;;;;17.87;66.03;96324.56;10442513;28;20044;-29
2022/11/09 04:51:07;;;;;;;3.42;1.25;;;;;;;17.83;65.30;96316.97;10436787;28;20033;-31
2022/11/09 04:56:07;;;;;;;3.45;1.50;;;;;;;17.90;64.51;96324.53;10437536;28;20029;-30
2022/11/09 05:01:12;;;;;;;1.63;1.30;;;;;;;17.93;64.15;96333.81;10435031;28;20032;-30
2022/11/09 05:06:31;;;;;;;3.50;1.75;;;;;;;17.91;64.59;96330.47;10431055;28;20036;-31
2022/11/09 05:11:33;;;;;;;5.07;1.58;;;;;;;17.90;65.18;96329.59;10441847;28;20037;-31
2022/11/09 05:16:33;;;;;;;4.22;1.67;;;;;;;17.92;65.13;96334.66;10435710;28;20067;-30
2022/11/09 05:21:34;;;;;;;5.50;1.40;;;;;;;17.89;64.99;96324.53;10439334;28;20111;-29
2022/11/09 05:26:37;;;;;;;2.93;1.40;;;;;;;17.90;65.11;96328.78;10436360;28;20281;-30
2022/11/09 05:31:38;;;;;;;2.40;1.30;;;;;;;17.89;65.25;96340.59;10437846;28;20337;-30
2022/11/09 05:36:39;;;;;;;3.70;2.10;;;;;;;17.89;65.41;96342.25;10436982;28;20067;-31
2022/11/09 05:41:39;;;;;;;3.88;1.20;;;;;;;17.89;65.18;96344.78;10436784;28;20112;-30
2022/11/09 05:46:39;;;;;;;3.00;1.80;;;;;;;17.92;65.28;96337.19;10432265;28;20056;-32
2022/11/09 05:51:40;;;;;;;4.43;1.63;;;;;;;17.92;65.44;96338.03;10438229;28;20033;-30
2022/11/09 05:56:40;;;;;;;2.70;1.87;;;;;;;17.90;65.64;96359.16;10435181;28;20034;-30
2022/11/09 06:01:40;;;;;;;5.63;2.07;;;;;;;17.93;64.86;96371.81;10428388;28;20029;-30
2022/11/09 06:06:42;;;;;;;7.27;3.50;;;;;;;17.90;64.91;96364.22;10430124;28;20447;-30
2022/11/09 06:11:42;;;;;;;4.07;1.67;;;;;;;17.90;64.90;96384.50;10429320;28;20087;-30
2022/11/09 06:16:43;;;;;;;4.40;1.97;;;;;;;17.90;64.85;96381.97;10437746;28;20602;-30
2022/11/09 06:21:43;;;;;;;5.20;2.00;;;;;;;17.90;65.30;96389.56;10432001;28;20025;-31
2022/11/09 06:26:43;;;;;;;3.33;1.40;;;;;;;17.91;65.20;96396.31;10440155;28;20118;-30
2022/11/09 06:31:45;;;;;;;6.73;1.10;;;;;;;17.85;64.86;96381.13;10436774;28;20498;-29
2022/11/09 06:36:45;;;;;;;8.23;2.00;;;;;;;17.86;65.07;96403.06;10431121;28;20403;-30
2022/11/09 06:41:45;;;;;;;2.65;1.45;;;;;;;17.71;65.73;96388.75;10436249;28;20029;-30
2022/11/09 06:46:46;;;;;;;5.60;3.43;;;;;;;17.89;64.97;96420.75;10428466;28;20026;-30
2022/11/09 06:51:46;;;;;;;3.33;1.37;;;;;;;17.92;64.90;96430.91;10437178;28;20091;-30
2022/11/09 06:56:47;;;;;;;10.03;4.37;;;;;;;17.91;66.62;96432.59;10434192;28;20290;-30
2022/11/09 07:01:47;;;;;;;5.00;1.53;;;;;;;17.91;66.21;96441.88;10428454;28;20029;-30
2022/11/09 07:06:47;;;;;;;4.50;1.80;;;;;;;17.93;65.50;96425.00;10428546;28;20107;-30
2022/11/09 07:11:48;;;;;;;6.63;1.50;;;;;;;17.93;65.19;96442.72;10439948;28;20116;-30
2022/11/09 07:16:48;;;;;;;5.07;2.00;;;;;;;17.91;64.68;96445.25;10434035;28;20078;-30
2022/11/09 07:21:48;;;;;;;4.23;1.67;;;;;;;17.87;65.22;96435.97;10434439;28;20485;-29
2022/11/09 07:26:49;;;;;;;4.57;2.17;;;;;;;17.89;64.80;96441.88;10436201;28;20029;-30
2022/11/09 07:31:49;;;;;;;4.18;1.60;;;;;;;17.88;64.83;96446.94;10426745;28;20299;-30
2022/11/09 07:36:52;;;;;;;3.50;1.77;;;;;;;17.86;65.26;96448.63;10429082;28;20041;-32
2022/11/09 07:41:54;;;;;;;3.38;1.48;;;;;;;17.87;65.01;96450.31;10434260;28;20025;-29
2022/11/09 07:46:54;;;;;;;5.30;1.35;;;;;;;17.86;65.34;96454.56;10434335;28;20071;-30
2022/11/09 07:51:54;;;;;;;6.37;2.60;;;;;;;17.82;65.24;96446.97;10429201;28;20584;-30
2022/11/09 07:56:55;;;;;;;5.43;1.43;;;;;;;17.86;65.87;96453.69;10432003;28;20275;-30
2022/11/09 08:01:56;;;;;;;5.17;1.97;;;;;;;17.87;65.67;96462.97;10429138;28;20026;-29
2022/11/09 08:06:56;;;;;;;5.47;1.73;;;;;;;17.86;66.53;96449.50;10432810;28;20057;-30
2022/11/09 08:11:57;;;;;;;3.80;1.40;;;;;;;17.91;66.33;96452.00;10431021;28;20120;-30
2022/11/09 08:16:57;;;;;;;3.13;1.20;;;;;;;17.92;65.02;96468.91;10432188;28;20419;-29
2022/11/09 08:21:58;;;;;;;1.87;1.20;;;;;;;17.89;65.09;96459.59;10427387;28;20295;-31
2022/11/09 08:26:59;;;;;;;3.40;1.30;;;;;;;17.88;64.89;96463.00;10428934;28;20064;-30
2022/11/09 08:31:59;;;;;;;4.47;1.30;;;;;;;17.86;64.94;96463.84;10434190;28;20040;-30
2022/11/09 08:37:01;;;;;;;6.97;1.50;;;;;;;17.85;65.21;96468.06;10428272;28;20376;-30
2022/11/09 08:42:01;;;;;;;3.03;1.40;;;;;;;17.85;65.13;96467.22;10429592;28;20053;-30
2022/11/09 08:47:02;;;;;;;2.20;1.07;;;;;;;17.86;65.51;96474.81;10428390;28;20043;-31
2022/11/09 08:52:02;;;;;;;2.67;1.20;;;;;;;17.86;65.57;96463.84;10434647;28;20120;-29
2022/11/09 08:57:03;;;;;;;3.73;1.40;;;;;;;17.83;65.68;96468.91;10430128;28;20032;-30
2022/11/09 09:02:03;;;;;;;2.60;1.43;;;;;;;17.83;65.35;96466.38;10427933;28;20298;-30
2022/11/09 09:07:04;;;;;;;2.28;1.00;;;;;;;17.83;65.60;96473.97;10425503;28;20032;-30
2022/11/09 09:12:06;;;;;;;2.75;1.15;;;;;;;17.83;65.64;96469.75;10441686;28;20044;-30
2022/11/09 09:17:07;;;;;;;3.28;1.33;;;;;;;17.86;66.37;96474.81;10434300;28;20033;-30
2022/11/09 09:22:07;;;;;;;1.92;1.40;;;;;;;17.90;66.19;96475.66;10432925;28;20025;-30
2022/11/09 09:27:07;;;;;;;2.33;1.40;;;;;;;17.89;66.23;96479.00;10440546;28;20077;-30
2022/11/09 09:32:08;;;;;;;1.98;1.20;;;;;;;17.86;65.50;96473.97;10433231;28;20280;-31
2022/11/09 09:37:08;;;;;;;2.77;1.30;;;;;;;17.88;65.10;96479.84;10436364;28;20106;-31
2022/11/09 09:42:17;;;;;;;3.87;1.00;;;;;;;17.85;65.17;96488.34;10438734;28;20116;-31
2022/11/09 09:47:44;;;;;;;2.13;1.20;;;;;;;17.86;65.27;96489.16;10425454;28;20037;-29
2022/11/09 09:52:48;;;;;;;;;;;;;;;17.83;65.64;96495.06;10433089;28;20033;-31
2022/11/09 09:57:55;;;;;;;2.33;1.13;;;;;;;17.81;65.69;96488.31;10434990;28;20382;-31
2022/11/09 10:02:56;;;;;;;2.28;0.90;;;;;;;17.81;65.19;96501.81;10434770;28;20052;-29
2022/11/09 10:08:20;;;;;;;1.73;1.20;;;;;;;17.82;65.35;96497.63;10430851;28;20104;-30
2022/11/09 10:13:59;;;;;;;2.58;1.23;;;;;;;17.82;65.43;96502.69;10431363;28;20048;-29
2022/11/09 10:19:24;;;;;;;2.08;1.30;;;;;;;17.82;65.36;96507.75;10436263;28;20120;-30
2022/11/09 10:24:30;;;;;;;1.58;1.25;;;;;;;17.82;65.25;96505.22;10434121;28;20079;-31
2022/11/09 10:29:41;;;;;;;1.75;1.20;;;;;;;17.86;66.20;96499.28;10437583;28;20029;-31
2022/11/09 10:34:52;;;;;;;1.13;0.95;;;;;;;17.88;66.09;96492.53;10432594;28;20037;-31
2022/11/09 10:40:09;;;;;;;1.92;1.05;;;;;;;17.86;66.05;96487.47;10431155;28;20036;-30
2022/11/09 10:45:33;;;;;;;3.22;1.25;;;;;;;17.84;65.53;96486.63;10439579;28;20046;-29
2022/11/09 10:50:52;;;;;;;1.55;1.00;;;;;;;17.84;64.97;96479.03;10440110;28;20123;-30
2022/11/09 10:56:19;;;;;;;1.52;1.05;;;;;;;17.83;65.45;96473.97;10435035;28;20044;-30
2022/11/09 11:01:38;;;;;;;3.38;1.08;;;;;;;17.83;65.26;96476.50;10431606;28;20046;-30
2022/11/09 11:06:57;;;;;;;1.55;1.15;;;;;;;17.82;65.53;96482.44;10429733;28;20037;-30
2022/11/09 11:12:19;;;;;;;1.20;1.08;;;;;;;17.81;65.71;96471.44;10432621;28;20388;-30
2022/11/09 11:17:39;;;;;;;2.33;1.33;;;;;;;17.79;65.63;96468.06;10435983;28;20045;-30
2022/11/09 11:23:25;;;;;;;1.23;0.90;;;;;;;17.80;65.48;96453.69;10433291;28;20049;-31
2022/11/09 11:28:52;;;;;;;2.50;1.02;;;;;;;17.80;65.54;96453.69;10436317;28;20136;-30
2022/11/09 11:34:12;;;;;;;;;;;;;;;17.82;65.61;96446.97;10429250;28;20049;-30
2022/11/09 11:39:46;;;;;;;1.50;0.90;;;;;;;17.82;65.77;96444.44;10435683;28;19960;-30
2022/11/09 11:45:14;;;;;;;2.80;1.10;;;;;;;17.87;66.05;96447.78;10434245;28;20534;-30
2022/11/09 11:50:45;;;;;;;2.20;1.00;;;;;;;17.88;66.00;96447.78;10435533;28;20045;-30
2022/11/09 11:56:15;;;;;;;1.33;1.00;;;;;;;17.84;65.84;96440.22;10424248;28;20040;-32
2022/11/09 12:01:53;;;;;;;2.10;1.10;;;;;;;17.83;65.71;96436.00;10450798;28;20108;-32
2022/11/09 12:07:30;;;;;;;2.15;0.85;;;;;;;17.82;65.68;96441.91;10435858;28;20045;-30
2022/11/09 12:12:58;;;;;;;1.30;1.20;;;;;;;17.82;65.90;96434.31;10441909;28;20037;-30
2022/11/09 12:18:29;;;;;;;2.20;0.95;;;;;;;17.81;65.83;96440.19;10441114;28;20475;-30
2022/11/09 12:23:56;;;;;;;1.23;0.90;;;;;;;17.80;65.85;96434.31;10435858;28;20423;-30
2022/11/09 12:29:20;;;;;;;1.27;0.88;;;;;;;17.79;65.70;96432.63;10442132;28;20053;-30
2022/11/09 12:35:01;;;;;;;5.85;3.10;;;;;;;17.80;65.75;96441.91;10429020;28;20507;-31
2022/11/09 12:40:29;;;;;;;9.13;3.88;;;;;;;17.80;65.86;96444.44;10425720;28;20045;-30
2022/11/09 12:45:50;;;;;;;;;;;;;;;17.81;65.84;96437.66;10434479;28;20462;-30
2022/11/09 12:51:09;;;;;;;11.27;5.32;;;;;;;17.79;66.40;96437.69;10435499;28;20033;-29
2022/11/09 12:56:35;;;;;;;15.35;5.65;;;;;;;17.84;66.83;96437.69;10435494;28;20045;-29
2022/11/09 13:01:57;;;;;;;11.60;5.28;;;;;;;17.85;66.73;96440.22;10448264;28;20037;-29
2022/11/09 13:07:26;;;;;;;9.35;3.97;;;;;;;17.85;65.76;96446.97;10449000;28;20045;-29
2022/11/09 13:12:45;;;;;;;7.72;2.65;;;;;;;17.83;65.60;96448.66;10447815;28;20041;-30
2022/11/09 13:18:22;;;;;;;10.93;4.70;;;;;;;17.82;65.45;96452.03;10448251;28;20123;-30
2022/11/09 13:23:41;;;;;;;11.30;4.03;;;;;;;17.77;65.72;96453.72;10444266;28;20045;-29
2022/11/09 13:29:13;;;;;;;9.52;4.18;;;;;;;17.79;65.97;96459.63;10439701;28;20033;-30
2022/11/09 13:34:44;;;;;;;10.88;4.03;;;;;;;17.79;66.02;96468.06;10447618;28;20041;-30
2022/11/09 13:40:31;;;;;;;9.90;4.93;;;;;;;17.77;66.16;96468.91;10448369;28;20124;-30
2022/11/09 13:45:54;;;;;;;13.13;4.77;;;;;;;17.79;65.92;96472.28;10437874;28;20076;-30
2022/11/09 13:51:17;;;;;;;9.80;4.68;;;;;;;17.77;65.76;96482.44;10449038;28;20295;-30
2022/11/09 13:56:39;;;;;;;14.23;6.05;;;;;;;17.76;66.36;96487.47;10450225;28;20200;-30
2022/11/09 14:02:00;;;;;;;11.40;5.82;;;;;;;17.81;65.86;96485.78;10445094;28;20040;-30
2022/11/09 14:07:22;;;;;;;19.80;7.82;;;;;;;17.88;66.74;96500.13;10447810;28;20076;-30
2022/11/09 14:12:55;;;;;;;23.60;9.77;;;;;;;17.91;67.09;96512.81;10445134;28;20049;-30
2022/11/09 14:18:27;;;;;;;7.65;3.33;;;;;;;17.69;66.39;96506.06;10445099;28;20049;-30
2022/11/09 14:23:46;;;;;;;13.95;6.55;;;;;;;17.76;66.62;96512.81;10441038;28;20079;-29
2022/11/09 14:29:23;;;;;;;12.73;5.50;;;;;;;17.77;66.51;96519.56;10446708;28;20036;-31
2022/11/09 14:34:42;;;;;;;15.32;6.10;;;;;;;17.74;66.69;96519.56;10441860;28;20044;-31
2022/11/09 14:40:01;;;;;;;20.80;6.85;;;;;;;17.74;66.92;96532.22;10442304;28;20546;-29
2022/11/09 14:45:20;;;;;;;17.15;8.93;;;;;;;17.71;67.21;96532.19;10426394;28;20045;-30
2022/11/09 14:50:40;;;;;;;17.55;7.38;;;;;;;17.76;67.45;96550.78;10432958;28;20496;-29
2022/11/09 14:56:02;;;;;;;17.25;7.35;;;;;;;17.77;66.90;96562.59;10435850;28;20495;-30
2022/11/09 15:01:24;;;;;;;16.85;7.65;;;;;;;17.75;67.16;96562.59;10432864;28;20045;-29
2022/11/09 15:06:59;;;;;;;17.48;7.72;;;;;;;17.77;66.69;96568.53;10429797;28;20132;-29
2022/11/09 15:12:20;;;;;;;14.95;7.57;;;;;;;17.77;66.92;96571.06;10433042;28;20068;-30
2022/11/09 15:17:45;;;;;;;15.65;7.00;;;;;;;17.84;67.48;96580.31;10432351;28;20037;-30
2022/11/09 15:23:19;;;;;;;18.38;7.13;;;;;;;17.87;67.43;96587.94;10429100;28;20025;-30
2022/11/09 15:28:44;;;;;;;11.82;6.43;;;;;;;17.84;67.01;96592.97;10428856;28;20040;-30
2022/11/09 15:34:25;;;;;;;14.30;6.82;;;;;;;17.81;66.63;96604.78;10429402;28;20068;-30
2022/11/09 15:39:44;;;;;;;12.88;6.07;;;;;;;17.80;66.50;96603.97;10436767;28;20037;-30
2022/11/09 15:45:03;;;;;;;13.63;6.63;;;;;;;17.79;66.53;96598.88;10432601;28;20045;-31
2022/11/09 15:50:25;;;;;;;13.77;6.72;;;;;;;17.76;66.69;96598.91;10432351;28;20152;-30
2022/11/09 15:55:44;;;;;;;12.18;6.05;;;;;;;17.78;66.34;96607.31;10429428;28;20036;-29
2022/11/09 16:01:03;;;;;;;10.48;5.72;;;;;;;17.76;66.31;96593.84;10434801;28;20029;-30
2022/11/09 16:06:22;;;;;;;12.85;6.30;;;;;;;17.76;66.51;96601.44;10427057;28;20450;-30
2022/11/09 16:11:41;;;;;;;11.77;6.18;;;;;;;17.76;66.56;96598.91;10437837;28;20040;-30
2022/11/09 16:17:00;;;;;;;13.57;6.35;;;;;;;17.75;66.37;96612.41;10426465;28;20053;-30
2022/11/09 16:22:19;;;;;;;14.13;6.35;;;;;;;17.74;66.62;96615.78;10431131;28;20115;-30
2022/11/09 16:27:38;;;;;;;11.98;6.00;;;;;;;17.79;66.90;96626.75;10436008;28;20108;-29
2022/11/09 16:32:57;;;;;;;8.38;5.47;;;;;;;17.84;66.75;96630.13;10439761;28;20500;-30
2022/11/09 16:38:16;;;;;;;10.88;5.50;;;;;;;17.82;66.55;96635.19;10444541;28;20041;-30
2022/11/09 16:43:36;;;;;;;11.07;5.53;;;;;;;17.82;66.24;96645.31;10441320;28;20142;-30
2022/11/09 16:48:59;;;;;;;9.95;5.60;;;;;;;17.77;66.07;96647.03;10431733;28;20049;-30
2022/11/09 16:54:19;;;;;;;11.57;5.85;;;;;;;17.76;66.42;96667.25;10432659;28;20044;-30
2022/11/09 16:59:38;;;;;;;10.23;5.72;;;;;;;17.74;66.33;96672.31;10438047;28;20037;-30
2022/11/09 17:04:57;;;;;;;10.43;5.20;;;;;;;17.76;66.28;96679.91;10442317;28;20120;-30
2022/11/09 17:10:16;;;;;;;12.82;7.00;;;;;;;17.76;66.07;96685.81;10437267;28;20041;-30
2022/11/09 17:15:43;;;;;;;13.50;5.93;;;;;;;17.74;66.30;96696.81;10435318;28;20033;-30
2022/11/09 17:21:02;;;;;;;11.63;6.40;;;;;;;17.75;66.38;96696.78;10428625;28;20041;-30
2022/11/09 17:26:23;;;;;;;12.98;6.65;;;;;;;17.76;66.53;96697.66;10439477;28;20127;-30
2022/11/09 17:31:42;;;;;;;14.15;6.53;;;;;;;17.76;66.73;96701.00;10436572;28;20419;-30
2022/11/09 17:37:01;;;;;;;12.93;7.45;;;;;;;17.76;66.87;96710.31;10437218;28;20056;-30
2022/11/09 17:42:20;;;;;;;14.25;7.93;;;;;;;17.80;67.19;96717.06;10436748;28;20049;-31
2022/11/09 17:47:38;;;;;;;12.15;7.05;;;;;;;17.81;67.04;96728.88;10438868;28;20048;-29
2022/11/09 17:52:57;;;;;;;13.07;7.68;;;;;;;17.81;66.79;96721.28;10433400;28;20502;-30
2022/11/09 17:58:17;;;;;;;8.73;6.10;;;;;;;17.79;66.56;96722.97;10438691;28;20123;-30
2022/11/09 18:03:37;;;;;;;11.80;6.22;;;;;;;17.77;66.77;96725.50;10433262;28;20044;-30
2022/11/09 18:08:56;;;;;;;11.18;6.80;;;;;;;17.75;66.45;96723.81;10424094;28;20049;-30
2022/11/09 18:14:15;;;;;;;13.80;6.25;;;;;;;17.73;65.91;96731.41;10434002;28;20049;-30
2022/11/09 18:19:34;;;;;;;8.50;6.32;;;;;;;17.72;66.43;96733.91;10433082;28;20033;-30
2022/11/09 18:24:53;;;;;;;12.27;6.97;;;;;;;17.71;66.13;96740.69;10424549;28;20041;-30
2022/11/09 18:30:13;;;;;;;9.40;6.18;;;;;;;17.74;65.84;96748.28;10428676;28;20471;-30
2022/11/09 18:35:32;;;;;;;14.23;9.07;;;;;;;17.75;66.56;96754.19;10435188;28;20041;-28
2022/11/09 18:41:01;;;;;;;17.40;10.68;;;;;;;17.74;66.24;96762.63;10423392;28;20049;-30
2022/11/09 18:46:21;;;;;;;15.02;10.93;;;;;;;17.82;66.02;96771.94;10426012;28;20041;-29
2022/11/09 18:51:41;;;;;;;16.85;11.15;;;;;;;17.83;67.19;96778.69;10425851;28;20045;-30
2022/11/09 18:57:00;;;;;;;22.33;14.45;;;;;;;17.88;67.87;96783.78;10435189;28;20043;-30
2022/11/09 19:02:20;;;;;;;23.48;14.40;;;;;;;17.78;67.84;96769.38;10431241;28;20037;-30
2022/11/09 19:07:39;;;;;;;19.65;14.18;;;;;;;17.82;67.37;96781.25;10435797;28;20053;-30
2022/11/09 19:12:58;;;;;;;24.00;13.38;;;;;;;17.80;67.07;96773.63;10426046;28;20045;-30
2022/11/09 19:18:17;;;;;;;27.13;15.20;;;;;;;17.81;67.38;96782.06;10434123;28;20044;-30
2022/11/09 19:23:38;;;;;;;21.63;15.10;;;;;;;17.80;67.43;96788.81;10427583;28;20037;-31
2022/11/09 19:28:57;;;;;;;25.35;15.13;;;;;;;17.78;67.14;96784.59;10418518;28;20057;-31
2022/11/09 19:34:19;;;;;;;23.10;14.43;;;;;;;17.82;67.10;96798.97;10389734;28;20498;-31
2022/11/09 19:39:39;;;;;;;24.23;14.63;;;;;;;17.80;67.22;96803.16;10398455;28;20036;-31
2022/11/09 19:44:59;;;;;;;20.27;13.82;;;;;;;17.82;67.25;96801.50;10422990;28;20532;-30
2022/11/09 19:50:18;;;;;;;20.30;14.00;;;;;;;17.81;67.25;96815.84;10431411;28;20045;-30
2022/11/09 19:55:37;;;;;;;28.58;15.20;;;;;;;17.82;66.15;96822.59;10428084;28;20045;-30
2022/11/09 20:01:04;;;;;;;21.30;14.13;;;;;;;17.89;67.83;96820.91;10426239;28;20037;-30
2022/11/09 20:06:24;;;;;;;;;;;;;;;17.91;67.25;96835.28;10429304;28;20036;-31
2022/11/09 20:17:24;;;;;;;18.55;12.05;;;;;;;17.84;66.44;96846.22;10434246;28;20474;-31
2022/11/09 20:22:43;;;;;;;20.85;13.70;;;;;;;17.84;67.14;96861.41;10424109;28;20037;-30
2022/11/09 20:28:02;;;;;;;20.52;14.13;;;;;;;17.84;67.24;96860.59;10427920;28;20127;-31
2022/11/09 20:33:21;;;;;;;16.25;12.63;;;;;;;17.82;66.75;96868.16;10422717;28;20048;-30
2022/11/09 20:38:41;;;;;;;17.52;13.38;;;;;;;17.80;67.34;96866.47;10417215;28;20642;-27
2022/11/09 20:44:00;;;;;;;17.00;12.90;;;;;;;17.82;66.80;96873.25;10414375;28;20049;-30
2022/11/09 20:49:19;;;;;;;18.38;12.23;;;;;;;17.81;66.08;96874.09;10421884;28;20037;-30
2022/11/09 20:54:38;;;;;;;19.40;13.35;;;;;;;17.86;68.04;96881.69;10422466;28;20037;-30
2022/11/09 20:59:57;;;;;;;18.20;13.23;;;;;;;17.89;67.28;96890.16;10422543;28;20963;-29
2022/11/09 21:05:16;;;;;;;17.38;12.32;;;;;;;17.89;66.40;96909.56;10425927;28;20037;-30
2022/11/09 21:10:35;;;;;;;15.48;11.95;;;;;;;17.88;66.22;96908.75;10430874;28;20041;-30
2022/11/09 21:15:55;;;;;;;16.33;11.45;;;;;;;17.88;65.77;96923.06;10431260;28;20049;-31
2022/11/09 21:21:17;;;;;;;17.67;13.07;;;;;;;17.87;66.40;96919.72;10435404;28;20504;-30
2022/11/09 21:32:22;;;;;;;16.95;12.45;;;;;;;17.89;66.07;96930.69;10438144;28;20069;-30
2022/11/09 21:37:41;;;;;;;13.32;11.07;;;;;;;17.92;65.62;96929.88;10432224;28;20045;-30
2022/11/09 21:43:00;;;;;;;15.85;12.02;;;;;;;17.91;65.96;96943.38;10436124;28;20075;-30
2022/11/09 21:48:19;;;;;;;14.02;11.38;;;;;;;17.89;65.84;96932.34;10434618;28;20044;-30
2022/11/09 21:53:38;;;;;;;13.80;10.93;;;;;;;17.88;67.91;96941.66;10433484;28;20037;-30
2022/11/09 21:58:57;;;;;;;17.00;11.43;;;;;;;17.88;68.16;96945.88;10434279;28;20123;-30
2022/11/09 22:04:16;;;;;;;17.08;11.73;;;;;;;17.93;65.60;96954.34;10430817;28;20041;-30
2022/11/09 22:09:36;;;;;;;16.50;11.05;;;;;;;17.91;65.60;96956.03;10433236;28;20033;-31
2022/11/09 22:26:11;;;;;;;15.60;10.93;;;;;;;17.87;65.97;96966.97;10438989;28;20053;-30
2022/11/09 22:31:30;;;;;;;14.23;9.48;;;;;;;17.85;66.14;96983.84;10435056;28;20036;-30
2022/11/09 22:36:49;;;;;;;17.05;11.55;;;;;;;17.83;66.47;96981.28;10431859;28;20041;-30
2022/11/09 22:42:08;;;;;;;14.82;10.00;;;;;;;17.84;66.43;97000.72;10437637;28;20111;-30
2022/11/09 22:47:27;;;;;;;17.65;10.75;;;;;;;17.84;67.00;97004.94;10425559;28;20033;-30
2022/11/09 22:52:46;;;;;;;14.40;11.45;;;;;;;17.82;67.72;97009.16;10429764;28;20064;-30
2022/11/09 22:58:05;;;;;;;18.02;12.60;;;;;;;17.82;68.12;97015.06;10434424;28;20045;-31
2022/11/09 23:03:24;;;;;;;13.50;10.77;;;;;;;17.90;66.24;97021.03;10435907;28;20038;-29
2022/11/09 23:08:43;;;;;;;14.52;10.07;;;;;;;17.90;66.05;97027.81;10424573;28;20044;-30
2022/11/09 23:14:01;;;;;;;19.33;11.60;;;;;;;17.81;66.75;97022.63;10426692;28;20044;-30
2022/11/09 23:19:20;;;;;;;14.38;10.10;;;;;;;17.84;66.93;97032.81;10434723;28;20041;-31
2022/11/09 23:30:18;;;;;;;12.52;9.80;;;;;;;17.77;67.47;97038.66;10430390;28;20796;-30
2022/11/09 23:35:37;;;;;;;14.43;10.38;;;;;;;17.74;67.86;97033.59;10428686;28;20488;-29
2022/11/09 23:41:02;;;;;;;12.93;9.88;;;;;;;17.79;67.88;97044.59;10433423;28;20492;-29
2022/11/09 23:46:21;;;;;;;14.25;9.80;;;;;;;17.77;67.94;97044.59;10435592;28;20491;-31
2022/11/09 23:51:40;;;;;;;14.88;9.85;;;;;;;17.78;67.87;97053.03;10428628;28;20091;-31
2022/11/09 23:56:59;;;;;;;15.10;9.95;;;;;;;17.80;68.55;97061.47;10432415;28;20116;-31
